createdAt,value
2023-02-20T00:00:37.135Z,6.80
2023-02-20T00:03:05.110Z,6.87
2023-02-20T00:05:32.061Z,6.83
2023-02-20T00:07:59.497Z,6.67
2023-02-20T00:10:26.905Z,6.48
2023-02-20T00:12:54.280Z,6.41
2023-02-20T00:15:21.459Z,6.40
2023-02-20T00:17:48.831Z,6.35
2023-02-20T00:20:19.643Z,6.27
2023-02-20T00:22:46.613Z,6.35
2023-02-20T00:25:13.586Z,6.30
2023-02-20T00:27:40.403Z,6.33
2023-02-20T00:30:07.865Z,6.50
2023-02-20T00:32:34.688Z,6.56
2023-02-20T00:35:01.543Z,6.63
2023-02-20T00:37:28.478Z,6.67
2023-02-20T00:39:55.383Z,6.55
2023-02-20T00:42:22.110Z,6.69
2023-02-20T00:44:48.900Z,6.71
2023-02-20T00:47:15.649Z,6.58
2023-02-20T00:49:42.824Z,6.44
2023-02-20T00:52:09.651Z,6.41
2023-02-20T00:54:36.528Z,6.35
2023-02-20T00:57:03.346Z,6.12
2023-02-20T00:59:30.406Z,6.08
2023-02-20T01:01:57.181Z,5.82
2023-02-20T01:04:24.706Z,5.95
2023-02-20T01:06:51.461Z,5.84
2023-02-20T01:09:18.601Z,5.93
2023-02-20T01:11:46.104Z,6.06
2023-02-20T01:14:14.258Z,5.82
2023-02-20T01:16:48.780Z,5.75
2023-02-20T01:19:15.923Z,5.66
2023-02-20T01:21:42.667Z,5.78
2023-02-20T01:24:09.540Z,5.80
2023-02-20T01:26:36.760Z,5.62
2023-02-20T01:29:04.475Z,5.74
2023-02-20T01:31:31.342Z,5.58
2023-02-20T01:33:58.355Z,5.74
2023-02-20T01:36:25.215Z,5.96
2023-02-20T01:38:52.000Z,5.64
2023-02-20T01:41:20.364Z,5.67
2023-02-20T01:43:47.182Z,5.19
2023-02-20T01:46:29.521Z,5.03
2023-02-20T01:49:04.809Z,5.24
2023-02-20T01:51:37.041Z,5.22
2023-02-20T01:54:07.740Z,5.22
2023-02-20T01:56:34.798Z,5.26
2023-02-20T01:59:03.004Z,5.19
2023-02-20T02:01:32.747Z,5.16
2023-02-20T02:04:05.149Z,5.28
2023-02-20T02:06:35.012Z,5.18
2023-02-20T02:09:09.660Z,5.18
2023-02-20T02:11:37.372Z,5.44
2023-02-20T02:14:05.241Z,5.41
2023-02-20T02:16:51.728Z,5.52
2023-02-20T02:19:49.308Z,5.70
2023-02-20T02:22:22.017Z,5.75
2023-02-20T02:25:26.797Z,5.77
2023-02-20T02:28:19.183Z,6.11
2023-02-20T02:31:23.991Z,5.92
2023-02-20T02:34:10.046Z,5.64
2023-02-20T02:37:05.400Z,5.82
2023-02-20T02:39:43.741Z,5.25
2023-02-20T02:42:28.960Z,5.19
2023-02-20T02:45:01.871Z,5.06
2023-02-20T02:47:57.962Z,5.25
2023-02-20T02:50:33.176Z,5.01
2023-02-20T02:53:02.281Z,4.97
2023-02-20T02:55:33.949Z,5.07
2023-02-20T02:58:02.272Z,5.08
2023-02-20T03:00:40.426Z,4.92
2023-02-20T03:03:11.615Z,4.91
2023-02-20T03:05:49.644Z,4.94
2023-02-20T03:08:32.346Z,5.14
2023-02-20T03:11:05.383Z,5.20
2023-02-20T03:13:57.220Z,4.75
2023-02-20T03:16:33.606Z,5.01
2023-02-20T03:19:03.129Z,4.82
2023-02-20T03:21:33.558Z,4.37
2023-02-20T03:24:04.319Z,4.34
2023-02-20T03:26:36.198Z,4.28
2023-02-20T03:29:10.309Z,4.60
2023-02-20T03:32:11.105Z,4.91
2023-02-20T03:34:59.236Z,5.04
2023-02-20T03:37:47.124Z,4.30
2023-02-20T03:40:37.097Z,4.45
2023-02-20T03:43:24.140Z,4.56
2023-02-20T03:45:54.010Z,4.41
2023-02-20T03:48:35.102Z,4.61
2023-02-20T03:51:02.217Z,4.70
2023-02-20T03:53:29.316Z,4.44
2023-02-20T03:56:01.302Z,4.44
2023-02-20T03:58:31.371Z,4.41
2023-02-20T04:01:36.762Z,4.03
2023-02-20T04:04:07.175Z,3.94
2023-02-20T04:06:37.284Z,3.60
2023-02-20T04:09:13.142Z,3.73
2023-02-20T04:11:45.903Z,3.83
2023-02-20T04:14:15.632Z,3.79
2023-02-20T04:16:51.418Z,3.85
2023-02-20T04:19:18.939Z,3.75
2023-02-20T04:21:51.844Z,3.87
2023-02-20T04:24:38.708Z,3.89
2023-02-20T04:27:05.828Z,3.70
2023-02-20T04:29:32.971Z,3.72
2023-02-20T04:31:59.997Z,3.60
2023-02-20T04:34:26.879Z,3.78
2023-02-20T04:37:07.412Z,3.56
2023-02-20T04:39:34.307Z,3.79
2023-02-20T04:42:00.984Z,3.87
2023-02-20T04:44:34.553Z,3.88
2023-02-20T04:47:06.977Z,3.94
2023-02-20T04:49:33.935Z,3.93
2023-02-20T04:52:00.793Z,4.07
2023-02-20T04:54:27.826Z,4.07
2023-02-20T04:56:55.849Z,4.00
2023-02-20T04:59:24.049Z,3.95
2023-02-20T05:01:52.328Z,4.04
2023-02-20T05:04:21.104Z,4.24
2023-02-20T05:06:54.524Z,4.13
2023-02-20T05:09:23.754Z,4.18
2023-02-20T05:11:51.583Z,4.38
2023-02-20T05:14:20.105Z,4.46
2023-02-20T05:16:47.913Z,4.23
2023-02-20T05:19:16.212Z,4.25
2023-02-20T05:22:04.639Z,4.25
2023-02-20T05:24:32.832Z,4.51
2023-02-20T05:27:00.410Z,4.34
2023-02-20T05:29:28.044Z,4.21
2023-02-20T05:31:55.148Z,3.98
2023-02-20T05:34:22.851Z,4.04
2023-02-20T05:36:50.617Z,4.06
2023-02-20T05:39:18.468Z,3.69
2023-02-20T05:41:46.234Z,3.85
2023-02-20T05:44:16.353Z,3.83
2023-02-20T05:46:44.943Z,3.67
2023-02-20T05:49:12.364Z,3.80
2023-02-20T05:51:40.055Z,3.71
2023-02-20T05:54:07.293Z,3.65
2023-02-20T05:56:37.125Z,3.77
2023-02-20T05:59:05.001Z,3.86
2023-02-20T06:01:32.216Z,4.03
2023-02-20T06:04:01.512Z,4.15
2023-02-20T06:06:39.708Z,3.91
2023-02-20T06:09:09.206Z,3.81
2023-02-20T06:11:36.123Z,3.69
2023-02-20T06:14:05.645Z,3.67
2023-02-20T06:16:35.058Z,3.76
2023-02-20T06:19:03.661Z,4.02
2023-02-20T06:21:36.060Z,4.09
2023-02-20T06:24:03.417Z,3.83
2023-02-20T06:26:30.208Z,4.04
2023-02-20T06:28:58.294Z,4.32
2023-02-20T06:31:28.543Z,4.22
2023-02-20T06:33:55.516Z,4.26
2023-02-20T06:36:25.969Z,4.03
2023-02-20T06:38:55.247Z,4.36
2023-02-20T06:41:23.485Z,4.35
2023-02-20T06:43:50.331Z,4.61
2023-02-20T06:46:18.310Z,4.73
2023-02-20T06:48:47.482Z,4.96
2023-02-20T06:51:21.187Z,4.92
2023-02-20T06:53:48.300Z,5.15
2023-02-20T06:56:23.471Z,5.34
2023-02-20T06:58:51.740Z,5.34
2023-02-20T07:01:20.450Z,5.22
2023-02-20T07:03:51.508Z,5.13
2023-02-20T07:06:18.432Z,5.07
2023-02-20T07:08:45.426Z,5.13
2023-02-20T07:11:13.232Z,5.26
2023-02-20T07:13:42.729Z,5.38
2023-02-20T07:16:09.955Z,5.54
2023-02-20T07:18:37.756Z,5.68
2023-02-20T07:21:04.833Z,5.51
2023-02-20T07:23:31.838Z,5.67
2023-02-20T07:25:58.638Z,5.78
2023-02-20T07:28:26.299Z,5.88
2023-02-20T07:30:53.291Z,6.15
2023-02-20T07:33:20.372Z,6.29
2023-02-20T07:35:49.218Z,6.29
2023-02-20T07:38:18.704Z,6.36
2023-02-20T07:40:48.227Z,6.26
2023-02-20T07:43:15.121Z,6.31
2023-02-20T07:45:44.810Z,6.34
2023-02-20T07:48:14.269Z,6.51
2023-02-20T07:50:41.430Z,6.75
2023-02-20T07:53:08.445Z,6.71
2023-02-20T07:55:35.407Z,6.63
2023-02-20T07:58:03.162Z,6.71
2023-02-20T08:00:30.150Z,6.60
2023-02-20T08:03:00.977Z,6.54
2023-02-20T08:05:32.825Z,6.41
2023-02-20T08:08:05.455Z,6.46
2023-02-20T08:10:33.570Z,6.55
2023-02-20T08:13:00.371Z,6.65
2023-02-20T08:15:29.158Z,6.90
2023-02-20T08:17:56.224Z,6.89
2023-02-20T08:20:26.792Z,6.92
2023-02-20T08:22:53.939Z,7.01
2023-02-20T08:25:20.725Z,7.08
2023-02-20T08:27:49.521Z,6.91
2023-02-20T08:30:24.868Z,7.17
2023-02-20T08:32:52.346Z,6.96
2023-02-20T08:35:21.021Z,6.88
2023-02-20T08:37:48.683Z,7.22
2023-02-20T08:40:15.502Z,7.48
2023-02-20T08:42:43.078Z,7.24
2023-02-20T08:45:10.479Z,7.21
2023-02-20T08:47:38.189Z,7.34
2023-02-20T08:50:05.348Z,7.41
2023-02-20T08:52:32.444Z,7.04
2023-02-20T08:54:59.619Z,7.22
2023-02-20T08:57:26.372Z,7.51
2023-02-20T08:59:53.575Z,7.88
2023-02-20T09:02:29.249Z,8.18
2023-02-20T09:04:57.651Z,8.27
2023-02-20T09:07:25.256Z,7.99
2023-02-20T09:09:52.509Z,8.28
2023-02-20T09:12:20.299Z,8.29
2023-02-20T09:14:47.230Z,8.42
2023-02-20T09:17:14.488Z,8.58
2023-02-20T09:19:41.680Z,8.59
2023-02-20T09:22:09.546Z,8.76
2023-02-20T09:24:37.201Z,8.44
2023-02-20T09:27:09.043Z,8.97
2023-02-20T09:29:41.266Z,9.22
2023-02-20T09:32:09.559Z,9.04
2023-02-20T09:34:37.682Z,9.29
2023-02-20T09:37:05.624Z,9.46
2023-02-20T09:39:32.772Z,9.82
2023-02-20T09:42:18.017Z,9.98
2023-02-20T09:44:58.733Z,9.40
2023-02-20T09:47:55.475Z,10.03
2023-02-20T09:50:49.430Z,10.05
2023-02-20T09:53:18.996Z,10.21
2023-02-20T09:55:47.347Z,10.26
2023-02-20T09:58:41.365Z,9.57
2023-02-20T10:01:11.498Z,10.20
2023-02-20T10:03:48.187Z,10.18
2023-02-20T10:06:19.976Z,10.79
2023-02-20T10:08:52.162Z,10.72
2023-02-20T10:11:56.609Z,10.84
2023-02-20T10:14:34.887Z,11.00
2023-02-20T10:17:32.733Z,10.93
2023-02-20T10:20:26.128Z,11.16
2023-02-20T10:23:10.889Z,10.72
2023-02-20T10:25:43.484Z,11.19
2023-02-20T10:28:16.057Z,11.32
2023-02-20T10:31:03.107Z,11.14
2023-02-20T10:33:37.161Z,10.74
2023-02-20T10:36:45.488Z,11.14
2023-02-20T10:39:17.888Z,11.54
2023-02-20T10:41:55.150Z,10.59
2023-02-20T10:44:40.285Z,10.60
2023-02-20T10:47:30.577Z,11.31
2023-02-20T10:50:42.185Z,11.76
2023-02-20T10:53:31.603Z,12.08
2023-02-20T10:56:15.225Z,10.93
2023-02-20T10:58:53.776Z,10.64
2023-02-20T11:01:24.397Z,11.15
2023-02-20T11:04:04.047Z,11.70
2023-02-20T11:06:40.061Z,12.34
2023-02-20T11:09:08.689Z,12.74
2023-02-20T11:11:40.321Z,12.39
2023-02-20T11:14:15.912Z,11.77
2023-02-20T11:16:56.410Z,12.52
2023-02-20T11:19:40.812Z,12.99
2023-02-20T11:22:07.778Z,13.11
2023-02-20T11:24:39.425Z,12.38
2023-02-20T11:27:13.412Z,12.17
2023-02-20T11:29:48.454Z,11.87
2023-02-20T11:32:34.357Z,11.77
2023-02-20T11:35:17.288Z,11.84
2023-02-20T11:37:54.933Z,11.94
2023-02-20T11:40:31.858Z,11.67
2023-02-20T11:43:13.958Z,11.79
2023-02-20T11:45:42.629Z,11.88
2023-02-20T11:48:12.428Z,11.73
2023-02-20T11:50:52.407Z,11.98
2023-02-20T11:53:32.380Z,12.19
2023-02-20T11:56:19.690Z,12.73
2023-02-20T11:58:47.544Z,12.80
2023-02-20T12:01:32.829Z,12.26
2023-02-20T12:04:00.909Z,12.99
2023-02-20T12:06:33.881Z,13.21
2023-02-20T12:09:07.141Z,13.52
2023-02-20T12:11:34.896Z,13.32
2023-02-20T12:14:01.886Z,12.84
2023-02-20T12:16:50.697Z,13.29
2023-02-20T12:19:27.218Z,14.09
2023-02-20T12:22:01.406Z,13.77
2023-02-20T12:24:46.614Z,13.83
2023-02-20T12:27:40.339Z,14.27
2023-02-20T12:30:25.453Z,13.98
2023-02-20T12:33:16.960Z,14.16
2023-02-20T12:35:59.867Z,13.36
2023-02-20T12:38:38.366Z,13.04
2023-02-20T12:41:26.127Z,13.94
2023-02-20T12:44:20.419Z,14.35
2023-02-20T12:47:21.254Z,14.59
2023-02-20T12:49:55.759Z,14.98
2023-02-20T12:52:57.326Z,14.12
2023-02-20T12:55:57.201Z,14.42
2023-02-20T12:58:46.650Z,14.61
2023-02-20T13:01:22.819Z,13.91
2023-02-20T13:03:57.983Z,13.62
2023-02-20T13:06:43.797Z,13.53
2023-02-20T13:09:13.864Z,13.30
2023-02-20T13:11:46.652Z,13.89
2023-02-20T13:14:13.385Z,14.23
2023-02-20T13:16:47.747Z,14.51
2023-02-20T13:19:29.986Z,14.81
2023-02-20T13:21:58.524Z,14.07
2023-02-20T13:24:33.389Z,14.50
2023-02-20T13:27:07.614Z,14.56
2023-02-20T13:29:56.134Z,14.80
2023-02-20T13:32:30.897Z,14.24
2023-02-20T13:35:33.769Z,14.31
2023-02-20T13:38:12.650Z,14.28
2023-02-20T13:40:44.823Z,14.72
2023-02-20T13:43:25.799Z,15.37
2023-02-20T13:46:06.135Z,15.18
2023-02-20T13:48:34.174Z,15.15
2023-02-20T13:51:16.329Z,15.16
2023-02-20T13:54:06.798Z,15.48
2023-02-20T13:56:39.878Z,14.84
2023-02-20T13:59:18.372Z,15.16
2023-02-20T14:02:16.132Z,15.18
2023-02-20T14:04:57.363Z,15.02
2023-02-20T14:07:40.980Z,13.74
2023-02-20T14:10:15.084Z,13.86
2023-02-20T14:12:53.008Z,14.28
2023-02-20T14:15:22.755Z,14.51
2023-02-20T14:17:53.539Z,14.32
2023-02-20T14:20:25.955Z,14.52
2023-02-20T14:23:13.034Z,14.78
2023-02-20T14:25:52.061Z,14.77
2023-02-20T14:28:33.237Z,14.72
2023-02-20T14:31:07.811Z,14.48
2023-02-20T14:33:34.795Z,14.47
2023-02-20T14:36:26.555Z,13.98
2023-02-20T14:39:32.185Z,13.79
2023-02-20T14:42:04.347Z,13.81
2023-02-20T14:44:33.861Z,13.89
2023-02-20T14:47:15.118Z,13.95
2023-02-20T14:49:42.692Z,14.04
2023-02-20T14:52:10.464Z,13.82
2023-02-20T14:54:39.509Z,14.02
2023-02-20T14:57:06.775Z,14.33
2023-02-20T14:59:38.449Z,14.16
2023-02-20T15:02:06.141Z,14.01
2023-02-20T15:04:33.886Z,14.00
2023-02-20T15:07:07.148Z,13.87
2023-02-20T15:09:43.481Z,13.87
2023-02-20T15:12:32.790Z,13.62
2023-02-20T15:15:06.737Z,13.42
2023-02-20T15:17:38.354Z,13.49
2023-02-20T15:20:38.599Z,13.43
2023-02-20T15:23:15.669Z,13.35
2023-02-20T15:25:43.844Z,13.11
2023-02-20T15:28:17.869Z,12.95
2023-02-20T15:31:16.232Z,12.91
2023-02-20T15:33:49.937Z,13.12
2023-02-20T15:36:24.022Z,13.18
2023-02-20T15:38:56.673Z,13.27
2023-02-20T15:41:24.486Z,13.09
2023-02-20T15:43:52.287Z,13.02
2023-02-20T15:46:21.131Z,13.13
2023-02-20T15:48:51.755Z,13.27
2023-02-20T15:51:23.024Z,13.29
2023-02-20T15:53:53.871Z,12.91
2023-02-20T15:56:27.346Z,12.84
2023-02-20T15:58:56.880Z,12.67
2023-02-20T16:01:24.460Z,12.64
2023-02-20T16:03:57.137Z,12.54
2023-02-20T16:06:25.114Z,12.71
2023-02-20T16:08:53.170Z,12.62
2023-02-20T16:11:24.470Z,12.63
2023-02-20T16:14:01.035Z,12.74
2023-02-20T16:16:39.378Z,12.82
2023-02-20T16:19:19.116Z,12.78
2023-02-20T16:21:58.779Z,12.76
2023-02-20T16:24:28.365Z,12.54
2023-02-20T16:26:57.132Z,12.37
2023-02-20T16:29:33.342Z,12.21
2023-02-20T16:32:02.334Z,12.06
2023-02-20T16:34:33.152Z,12.07
2023-02-20T16:37:03.319Z,12.16
2023-02-20T16:39:31.950Z,11.78
2023-02-20T16:42:03.587Z,11.82
2023-02-20T16:44:36.182Z,11.89
2023-02-20T16:47:05.073Z,11.75
2023-02-20T16:49:37.542Z,11.68
2023-02-20T16:52:23.493Z,11.60
2023-02-20T16:54:55.275Z,11.54
2023-02-20T16:57:25.354Z,11.41
2023-02-20T16:59:56.323Z,11.48
2023-02-20T17:02:27.417Z,11.31
2023-02-20T17:04:58.834Z,11.27
2023-02-20T17:07:27.719Z,11.27
2023-02-20T17:09:58.634Z,10.94
2023-02-20T17:12:27.929Z,10.74
2023-02-20T17:14:58.035Z,10.78
2023-02-20T17:17:26.638Z,10.54
2023-02-20T17:19:58.312Z,10.31
2023-02-20T17:22:26.581Z,10.37
2023-02-20T17:24:56.336Z,10.30
2023-02-20T17:27:25.979Z,10.30
2023-02-20T17:29:54.558Z,10.46
2023-02-20T17:32:23.516Z,10.37
2023-02-20T17:34:52.103Z,10.61
2023-02-20T17:37:21.752Z,10.53
2023-02-20T17:39:50.962Z,10.39
2023-02-20T17:42:18.734Z,10.35
2023-02-20T17:44:50.150Z,10.19
2023-02-20T17:47:18.092Z,10.24
2023-02-20T17:49:50.109Z,10.20
2023-02-20T17:52:20.694Z,10.20
2023-02-20T17:54:50.356Z,10.21
2023-02-20T17:57:19.583Z,10.19
2023-02-20T17:59:49.475Z,9.91
2023-02-20T18:02:18.502Z,9.81
2023-02-20T18:04:47.057Z,9.75
2023-02-20T18:07:17.593Z,9.60
2023-02-20T18:09:46.264Z,9.45
2023-02-20T18:12:14.894Z,9.38
2023-02-20T18:14:45.264Z,9.43
2023-02-20T18:17:14.130Z,9.45
2023-02-20T18:19:42.298Z,9.40
2023-02-20T18:22:10.085Z,9.28
2023-02-20T18:24:37.899Z,9.24
2023-02-20T18:27:06.701Z,9.20
2023-02-20T18:29:35.323Z,9.15
2023-02-20T18:32:04.100Z,9.05
2023-02-20T18:34:32.163Z,8.96
2023-02-20T18:37:01.252Z,8.94
2023-02-20T18:39:30.048Z,9.11
2023-02-20T18:41:58.430Z,9.07
2023-02-20T18:44:27.827Z,9.02
2023-02-20T18:46:57.580Z,9.05
2023-02-20T18:49:26.430Z,9.10
2023-02-20T18:51:55.013Z,9.22
2023-02-20T18:54:32.962Z,9.09
2023-02-20T18:57:03.253Z,9.25
2023-02-20T18:59:32.067Z,9.20
2023-02-20T19:02:00.383Z,9.09
2023-02-20T19:04:29.038Z,8.76
2023-02-20T19:06:59.298Z,8.77
2023-02-20T19:09:27.896Z,8.66
2023-02-20T19:11:57.133Z,8.53
2023-02-20T19:14:28.828Z,8.47
2023-02-20T19:16:59.842Z,8.32
2023-02-20T19:19:30.700Z,8.54
2023-02-20T19:21:59.560Z,8.43
2023-02-20T19:24:28.183Z,8.26
2023-02-20T19:26:55.068Z,8.31
2023-02-20T19:29:22.804Z,8.36
2023-02-20T19:31:50.713Z,8.28
2023-02-20T19:34:19.077Z,8.23
2023-02-20T19:36:47.037Z,8.11
2023-02-20T19:39:15.033Z,8.28
2023-02-20T19:41:43.386Z,8.32
2023-02-20T19:44:16.055Z,8.47
2023-02-20T19:46:44.851Z,8.49
2023-02-20T19:49:13.132Z,8.70
2023-02-20T19:51:46.282Z,8.80
2023-02-20T19:54:17.477Z,8.75
2023-02-20T19:56:54.626Z,8.80
2023-02-20T19:59:23.213Z,8.93
2023-02-20T20:01:56.514Z,9.05
2023-02-20T20:04:35.664Z,9.14
2023-02-20T20:07:04.395Z,9.30
2023-02-20T20:09:37.000Z,9.18
2023-02-20T20:12:26.461Z,9.20
2023-02-20T20:14:55.444Z,9.28
2023-02-20T20:17:24.242Z,9.37
2023-02-20T20:19:58.723Z,9.34
2023-02-20T20:22:31.115Z,9.25
2023-02-20T20:24:59.303Z,9.28
2023-02-20T20:27:28.114Z,9.12
2023-02-20T20:29:57.128Z,8.85
2023-02-20T20:32:25.168Z,9.03
2023-02-20T20:34:55.426Z,9.08
2023-02-20T20:37:27.514Z,9.19
2023-02-20T20:39:58.549Z,9.39
2023-02-20T20:42:28.290Z,9.37
2023-02-20T20:44:59.361Z,9.34
2023-02-20T20:47:29.466Z,8.94
2023-02-20T20:49:58.848Z,8.94
2023-02-20T20:52:28.604Z,8.81
2023-02-20T20:54:58.173Z,8.67
2023-02-20T20:57:28.682Z,8.55
2023-02-20T20:59:59.416Z,8.51
2023-02-20T21:02:28.715Z,8.29
2023-02-20T21:05:09.445Z,8.04
2023-02-20T21:07:40.041Z,8.02
2023-02-20T21:10:09.219Z,8.12
2023-02-20T21:12:39.175Z,8.09
2023-02-20T21:15:09.614Z,7.46
2023-02-20T21:17:38.017Z,7.68
2023-02-20T21:20:08.432Z,7.89
2023-02-20T21:22:36.383Z,7.65
2023-02-20T21:25:04.741Z,7.55
2023-02-20T21:27:32.602Z,7.37
2023-02-20T21:30:01.490Z,7.62
2023-02-20T21:32:29.971Z,7.89
2023-02-20T21:34:58.244Z,7.89
2023-02-20T21:37:27.858Z,7.64
2023-02-20T21:39:55.758Z,7.54
2023-02-20T21:42:43.188Z,7.49
2023-02-20T21:45:11.086Z,7.85
2023-02-20T21:47:38.941Z,8.00
2023-02-20T21:50:08.078Z,8.30
2023-02-20T21:52:37.401Z,8.40
2023-02-20T21:55:09.621Z,8.42
2023-02-20T21:57:37.991Z,8.23
2023-02-20T22:00:08.686Z,8.18
2023-02-20T22:02:35.550Z,8.10
2023-02-20T22:05:07.798Z,8.16
2023-02-20T22:07:54.908Z,8.17
2023-02-20T22:10:42.683Z,8.26
2023-02-20T22:13:29.622Z,8.17
2023-02-20T22:16:16.226Z,8.12
2023-02-20T22:19:02.883Z,7.70
2023-02-20T22:21:51.109Z,7.51
2023-02-20T22:24:39.203Z,7.60
2023-02-20T22:27:27.654Z,7.76
2023-02-20T22:30:14.274Z,7.15
2023-02-20T22:33:00.845Z,6.82
2023-02-20T22:35:47.493Z,6.95
2023-02-20T22:38:33.916Z,6.85
2023-02-20T22:41:21.096Z,7.03
2023-02-20T22:44:07.454Z,7.12
2023-02-20T22:46:54.071Z,7.36
2023-02-20T22:49:40.611Z,7.52
2023-02-20T22:52:27.793Z,7.71
2023-02-20T22:55:14.095Z,7.41
2023-02-20T22:58:00.776Z,7.55
2023-02-20T23:00:47.057Z,7.63
2023-02-20T23:03:33.528Z,7.45
2023-02-20T23:06:20.706Z,7.44
2023-02-20T23:09:08.928Z,7.51
2023-02-20T23:11:57.359Z,7.39
2023-02-20T23:14:44.202Z,6.79
2023-02-20T23:17:36.354Z,6.79
2023-02-20T23:20:26.524Z,7.04
2023-02-20T23:23:12.240Z,7.22
2023-02-20T23:25:57.523Z,7.14
2023-02-20T23:28:44.466Z,6.91
2023-02-20T23:31:31.167Z,6.80
2023-02-20T23:34:17.660Z,6.68
2023-02-20T23:37:07.830Z,6.50
2023-02-20T23:39:53.723Z,6.46
2023-02-20T23:42:40.025Z,6.42
2023-02-20T23:45:27.445Z,6.37
2023-02-20T23:48:13.161Z,6.41
2023-02-20T23:50:58.525Z,6.21
2023-02-20T23:53:44.862Z,6.32
2023-02-20T23:56:30.597Z,6.31
2023-02-20T23:59:16.235Z,6.25
